Aérodrome :
LOGIN :

S'inscrire | Disclaimer

   EN    FR    IT 

 










Légende :    VFR   VFR Marginal   IFR   IFR Intensif   IFR Très Intensif
Visi : 
Plafond : 
>= 8 km
>= 3000ft
5 à 8 km
1000 à 3000 ft
1500m à 5 km
500 à 1000 ft
800 à 1500m
200 à 500 ft
< 800m
< 200 ft
Symboles :   Orages  Brouillard  Fortes neiges  Fortes précipitations  Vent > 20 kt
SIGMETs :   Divers  Orages  Givrage  Turbulence  Onde Orograph.  Cendres Volcan.







- Altitude de l'aérodrome : 299 ft
- Code IATA : EDM
- Voir les cartes d'approche


LFRI - La Roche Sur Yon - Les Ajoncs

DERNIER METAR :
  • 201030Z AUTO 12007KT 090V170 CAVOK 24/10 Q1023 NOSIG

METARs EXPIRÉS :
  • 201000Z AUTO 12008KT 090V150 CAVOK 23/10 Q1023 NOSIG
  • 200930Z AUTO 14008KT 110V180 CAVOK 23/08 Q1023 NOSIG
  • 200900Z AUTO 14009KT 120V180 CAVOK 22/09 Q1023 NOSIG
  • 200830Z AUTO 12007KT CAVOK 22/10 Q1023 NOSIG
  • 200800Z AUTO 09006KT CAVOK 21/12 Q1023 NOSIG

TAF TAF LFRI
Valide du 20 à 06h jusqu'au 21 à 06h UTC


200500Z 2006/2106 11005KT CAVOK
Pas de NOTAMs connus pour ce terrain.



MET'MAP, la Météo Aéronautique d'un coup d'oeil ! - Copyright ORBIFLY Décembre 2007 - Disclaimer

ORBIFLY MET'MAP TEAM :

Programmation & Développement : Alexandra Zaïnal
Conception & Développement : Baudouin d'Aumeries
Co-Programmation & Développement : Marc-Olivier Méhu
Soutien technique & logistique : Manuel Goepfert

Contact : metmap@orbifly.com




SOURCES & CREDITS :

   NOAA